createdAt,value
2015-09-24T00:00:01.791Z,73568
2015-09-24T00:00:14.185Z,73570
2015-09-24T00:00:26.576Z,73568
2015-09-24T00:00:38.982Z,73570
2015-09-24T00:00:51.388Z,73569
2015-09-24T00:01:03.779Z,73568
2015-09-24T00:01:16.172Z,73567
2015-09-24T00:01:28.579Z,73570
2015-09-24T00:01:41.016Z,73570
2015-09-24T00:01:53.454Z,73571
2015-09-24T00:02:05.844Z,73570
2015-09-24T00:02:18.238Z,73572
2015-09-24T00:02:30.629Z,73568
2015-09-24T00:02:43.019Z,73569
2015-09-24T00:02:55.425Z,73569
2015-09-24T00:03:07.818Z,73563
2015-09-24T00:03:20.224Z,73569
2015-09-24T00:03:32.646Z,73566
2015-09-24T00:03:45.068Z,73565
2015-09-24T00:03:57.506Z,73568
2015-09-24T00:04:09.915Z,73568
2015-09-24T00:04:22.321Z,73566
2015-09-24T00:04:34.712Z,73567
2015-09-24T00:04:47.102Z,73569
2015-09-24T00:04:59.509Z,73568
2015-09-24T00:05:11.901Z,73567
2015-09-24T00:05:24.323Z,73565
2015-09-24T00:05:36.729Z,73563
2015-09-24T00:05:49.151Z,73566
2015-09-24T00:06:01.636Z,73562
2015-09-24T00:06:14.060Z,73566
2015-09-24T00:06:26.451Z,73563
2015-09-24T00:06:38.842Z,73563
2015-09-24T00:06:51.248Z,73560
2015-09-24T00:07:03.639Z,73565
2015-09-24T00:07:16.032Z,73564
2015-09-24T00:07:28.438Z,73565
2015-09-24T00:07:40.829Z,73566
2015-09-24T00:07:53.235Z,73563
2015-09-24T00:08:05.642Z,73560
2015-09-24T00:08:18.066Z,73562
2015-09-24T00:08:30.520Z,73560
2015-09-24T00:08:42.910Z,73560
2015-09-24T00:08:55.316Z,73560
2015-09-24T00:09:07.707Z,73559
2015-09-24T00:09:20.085Z,73560
2015-09-24T00:09:32.476Z,73558
2015-09-24T00:09:44.882Z,73562
2015-09-24T00:09:57.288Z,73559
2015-09-24T00:10:09.713Z,73560
2015-09-24T00:10:22.135Z,73558
2015-09-24T00:10:34.541Z,73560
2015-09-24T00:10:46.979Z,73564
2015-09-24T00:10:59.385Z,73563
2015-09-24T00:11:11.778Z,73560
2015-09-24T00:11:24.184Z,73562
2015-09-24T00:11:36.574Z,73562
2015-09-24T00:11:48.965Z,73561
2015-09-24T00:12:01.371Z,73563
2015-09-24T00:12:13.781Z,73566
2015-09-24T00:12:26.187Z,73564
2015-09-24T00:12:38.593Z,73561
2015-09-24T00:12:51.031Z,73566
2015-09-24T00:13:03.437Z,73565
2015-09-24T00:13:15.829Z,73562
2015-09-24T00:13:28.220Z,73562
2015-09-24T00:13:40.595Z,73562
2015-09-24T00:13:52.986Z,73564
2015-09-24T00:14:05.376Z,73566
2015-09-24T00:14:17.770Z,73566
2015-09-24T00:14:30.176Z,73566
2015-09-24T00:14:42.582Z,73566
2015-09-24T00:14:55.004Z,73568
2015-09-24T00:15:07.426Z,73567
2015-09-24T00:15:19.834Z,73567
2015-09-24T00:15:32.225Z,73566
2015-09-24T00:15:44.616Z,73567
2015-09-24T00:15:57.022Z,73565
2015-09-24T00:16:09.413Z,73566
2015-09-24T00:16:21.823Z,73567
2015-09-24T00:16:34.229Z,73563
2015-09-24T00:16:46.620Z,73562
2015-09-24T00:16:59.042Z,73565
2015-09-24T00:17:11.479Z,73563
2015-09-24T00:17:23.904Z,73561
2015-09-24T00:17:36.326Z,73565
2015-09-24T00:17:48.716Z,73564
2015-09-24T00:18:01.123Z,73563
2015-09-24T00:18:13.529Z,73562
2015-09-24T00:18:25.922Z,73563
2015-09-24T00:18:38.328Z,73560
2015-09-24T00:18:50.718Z,73564
2015-09-24T00:19:03.125Z,73563
2015-09-24T00:19:15.531Z,73563
2015-09-24T00:19:27.940Z,73561
2015-09-24T00:19:40.378Z,73563
2015-09-24T00:19:52.831Z,73563
2015-09-24T00:20:05.221Z,73559
2015-09-24T00:20:17.612Z,73564
2015-09-24T00:20:30.005Z,73566
2015-09-24T00:20:42.395Z,73561
2015-09-24T00:20:54.802Z,73564
2015-09-24T00:21:07.208Z,73565
2015-09-24T00:21:19.630Z,73562
2015-09-24T00:21:32.070Z,73561
2015-09-24T00:21:44.476Z,73566
2015-09-24T00:21:56.148Z,73563
2015-09-24T00:22:08.539Z,73564
2015-09-24T00:22:20.930Z,73565
2015-09-24T00:22:33.339Z,73565
2015-09-24T00:22:45.729Z,73565
2015-09-24T00:22:58.120Z,73566
2015-09-24T00:23:10.542Z,73567
2015-09-24T00:23:22.948Z,73570
2015-09-24T00:23:35.373Z,73569
2015-09-24T00:23:47.811Z,73568
2015-09-24T00:24:00.232Z,73567
2015-09-24T00:24:12.623Z,73571
2015-09-24T00:24:25.014Z,73568
2015-09-24T00:24:36.689Z,73569
2015-09-24T00:24:49.095Z,73569
2015-09-24T00:25:01.485Z,73569
2015-09-24T00:25:13.876Z,73569
2015-09-24T00:25:26.282Z,73568
2015-09-24T00:25:38.691Z,73570
2015-09-24T00:25:51.128Z,73569
2015-09-24T00:26:03.550Z,73569
2015-09-24T00:26:16.003Z,73569
2015-09-24T00:26:28.412Z,73570
2015-09-24T00:26:40.803Z,73571
2015-09-24T00:26:53.194Z,73568
2015-09-24T00:27:05.600Z,73573
2015-09-24T00:27:17.990Z,73578
2015-09-24T00:27:30.243Z,73573
2015-09-24T00:27:42.650Z,73572
2015-09-24T00:27:55.056Z,73572
2015-09-24T00:28:07.462Z,73574
2015-09-24T00:28:19.978Z,73572
2015-09-24T00:28:32.417Z,73572
2015-09-24T00:28:44.824Z,73571
2015-09-24T00:28:56.511Z,73570
2015-09-24T00:29:08.902Z,73570
2015-09-24T00:29:21.292Z,73571
2015-09-24T00:29:33.686Z,73572
2015-09-24T00:29:46.108Z,73572
2015-09-24T00:29:58.514Z,73572
2015-09-24T00:30:10.936Z,73572
2015-09-24T00:30:23.373Z,73571
2015-09-24T00:30:35.767Z,73572
2015-09-24T00:30:48.158Z,73572
2015-09-24T00:31:00.548Z,73566
2015-09-24T00:31:12.955Z,73569
2015-09-24T00:31:25.330Z,73569
2015-09-24T00:31:37.739Z,73567
2015-09-24T00:31:50.129Z,73567
2015-09-24T00:32:02.551Z,73565
2015-09-24T00:32:14.973Z,73567
2015-09-24T00:32:27.395Z,73563
2015-09-24T00:32:39.836Z,73562
2015-09-24T00:32:52.257Z,73563
2015-09-24T00:33:04.648Z,73564
2015-09-24T00:33:17.039Z,73564
2015-09-24T00:33:29.445Z,73564
2015-09-24T00:33:41.853Z,73563
2015-09-24T00:33:54.244Z,73562
2015-09-24T00:34:06.650Z,73563
2015-09-24T00:34:19.056Z,73566
2015-09-24T00:34:31.463Z,73563
2015-09-24T00:34:43.887Z,73563
2015-09-24T00:34:56.309Z,73566
2015-09-24T00:35:08.700Z,73564
2015-09-24T00:35:21.091Z,73566
2015-09-24T00:35:33.497Z,73565
2015-09-24T00:35:45.890Z,73565
2015-09-24T00:35:58.281Z,73565
2015-09-24T00:36:10.687Z,73564
2015-09-24T00:36:23.078Z,73564
2015-09-24T00:36:35.500Z,73564
2015-09-24T00:36:47.939Z,73565
2015-09-24T00:37:00.361Z,73563
2015-09-24T00:37:12.767Z,73565
2015-09-24T00:37:25.174Z,73565
2015-09-24T00:37:37.564Z,73564
2015-09-24T00:37:49.958Z,73565
2015-09-24T00:38:02.349Z,73565
2015-09-24T00:38:14.583Z,73566
2015-09-24T00:38:26.974Z,73565
2015-09-24T00:38:39.398Z,73566
2015-09-24T00:38:51.820Z,73566
2015-09-24T00:39:04.227Z,73566
2015-09-24T00:39:16.664Z,73566
2015-09-24T00:39:29.055Z,73566
2015-09-24T00:39:41.448Z,73562
2015-09-24T00:39:53.839Z,73566
2015-09-24T00:40:06.276Z,73565
2015-09-24T00:40:18.667Z,73558
2015-09-24T00:40:31.073Z,73560
2015-09-24T00:40:43.483Z,73562
2015-09-24T00:40:55.951Z,73562
2015-09-24T00:41:08.217Z,73563
2015-09-24T00:41:20.608Z,73563
2015-09-24T00:41:32.998Z,73559
2015-09-24T00:41:45.391Z,73559
2015-09-24T00:41:57.781Z,73563
2015-09-24T00:42:10.188Z,73559
2015-09-24T00:42:22.610Z,73559
2015-09-24T00:42:35.047Z,73558
2015-09-24T00:42:47.472Z,73561
2015-09-24T00:42:59.894Z,73561
2015-09-24T00:43:12.284Z,73561
2015-09-24T00:43:24.691Z,73559
2015-09-24T00:43:37.081Z,73560
2015-09-24T00:43:49.491Z,73558
2015-09-24T00:44:01.897Z,73564
2015-09-24T00:44:13.569Z,73561
2015-09-24T00:44:25.991Z,73560
2015-09-24T00:44:38.397Z,73559
2015-09-24T00:44:50.836Z,73561
2015-09-24T00:45:03.274Z,73563
2015-09-24T00:45:15.664Z,73560
2015-09-24T00:45:28.055Z,73560
2015-09-24T00:45:40.446Z,73562
2015-09-24T00:45:52.839Z,73557
2015-09-24T00:46:05.261Z,73555
2015-09-24T00:46:17.652Z,73557
2015-09-24T00:46:30.058Z,73556
2015-09-24T00:46:42.464Z,73556
2015-09-24T00:46:54.905Z,73557
2015-09-24T00:47:07.327Z,73554
2015-09-24T00:47:19.733Z,73556
2015-09-24T00:47:32.124Z,73555
2015-09-24T00:47:44.530Z,73556
2015-09-24T00:47:56.923Z,73552
2015-09-24T00:48:09.314Z,73551
2015-09-24T00:48:21.705Z,73552
2015-09-24T00:48:34.127Z,73553
2015-09-24T00:48:46.533Z,73557
2015-09-24T00:48:58.957Z,73557
2015-09-24T00:49:11.379Z,73550
2015-09-24T00:49:23.816Z,73555
2015-09-24T00:49:36.254Z,73553
2015-09-24T00:49:48.644Z,73554
2015-09-24T00:50:01.038Z,73553
2015-09-24T00:50:13.428Z,73551
2015-09-24T00:50:25.835Z,73552
2015-09-24T00:50:38.241Z,73557
2015-09-24T00:50:50.647Z,73551
2015-09-24T00:51:03.055Z,73551
2015-09-24T00:51:15.477Z,73552
2015-09-24T00:51:27.915Z,73552
2015-09-24T00:51:40.321Z,73554
2015-09-24T00:51:52.712Z,73554
2015-09-24T00:52:05.106Z,73555
2015-09-24T00:52:17.497Z,73552
2015-09-24T00:52:29.903Z,73556
2015-09-24T00:52:42.294Z,73553
2015-09-24T00:52:53.966Z,73551
2015-09-24T00:53:06.390Z,73553
2015-09-24T00:53:18.796Z,73551
2015-09-24T00:53:31.202Z,73548
2015-09-24T00:53:43.624Z,73551
2015-09-24T00:53:55.999Z,73550
2015-09-24T00:54:08.393Z,73552
2015-09-24T00:54:20.783Z,73552
2015-09-24T00:54:33.174Z,73550
2015-09-24T00:54:45.564Z,73555
2015-09-24T00:54:57.111Z,73551
2015-09-24T00:55:09.536Z,73550
2015-09-24T00:55:21.942Z,73552
2015-09-24T00:55:34.380Z,73546
2015-09-24T00:55:46.802Z,73545
2015-09-24T00:55:59.192Z,73547
2015-09-24T00:56:11.585Z,73549
2015-09-24T00:56:23.976Z,73544
2015-09-24T00:56:36.366Z,73549
2015-09-24T00:56:48.773Z,73545
2015-09-24T00:57:01.182Z,73549
2015-09-24T00:57:13.604Z,73545
2015-09-24T00:57:26.026Z,73545
2015-09-24T00:57:38.401Z,73548
2015-09-24T00:57:50.807Z,73545
2015-09-24T00:58:03.199Z,73545
2015-09-24T00:58:15.621Z,73546
2015-09-24T00:58:28.012Z,73547
2015-09-24T00:58:40.403Z,73548
2015-09-24T00:58:52.809Z,73549
2015-09-24T00:59:05.218Z,73547
2015-09-24T00:59:17.640Z,73547
2015-09-24T00:59:30.062Z,73548
2015-09-24T00:59:42.452Z,73546
2015-09-24T00:59:54.859Z,73546
2015-09-24T01:00:07.253Z,73548
2015-09-24T01:00:19.644Z,73546
2015-09-24T01:00:32.050Z,73547
2015-09-24T01:00:44.441Z,73539
2015-09-24T01:00:56.847Z,73540
2015-09-24T01:01:09.256Z,73544
2015-09-24T01:01:21.678Z,73542
2015-09-24T01:01:33.381Z,73541
2015-09-24T01:01:45.834Z,73540
2015-09-24T01:01:58.209Z,73541
2015-09-24T01:02:10.602Z,73539
2015-09-24T01:02:22.993Z,73541
2015-09-24T01:02:35.383Z,73537
2015-09-24T01:02:47.774Z,73536
2015-09-24T01:03:00.165Z,73535
2015-09-24T01:03:12.574Z,73533
2015-09-24T01:03:24.980Z,73535
2015-09-24T01:03:37.433Z,73535
2015-09-24T01:03:49.855Z,73534
2015-09-24T01:04:02.277Z,73533
2015-09-24T01:04:13.998Z,73535
2015-09-24T01:04:25.670Z,73530
2015-09-24T01:04:38.076Z,73534
2015-09-24T01:04:50.466Z,73533
2015-09-24T01:05:02.857Z,73534
2015-09-24T01:05:15.266Z,73535
2015-09-24T01:05:27.673Z,73532
2015-09-24T01:05:40.094Z,73535
2015-09-24T01:05:52.532Z,73533
2015-09-24T01:06:04.923Z,73531
2015-09-24T01:06:17.316Z,73532
2015-09-24T01:06:29.722Z,73532
2015-09-24T01:06:42.129Z,73529
2015-09-24T01:06:54.519Z,73531
2015-09-24T01:07:06.912Z,73528
2015-09-24T01:07:19.318Z,73530
2015-09-24T01:07:31.724Z,73532
2015-09-24T01:07:44.162Z,73530
2015-09-24T01:07:56.584Z,73532
2015-09-24T01:08:08.977Z,73531
2015-09-24T01:08:21.384Z,73531
2015-09-24T01:08:33.774Z,73529
2015-09-24T01:08:46.181Z,73529
2015-09-24T01:08:58.571Z,73530
2015-09-24T01:09:10.965Z,73531
2015-09-24T01:09:23.355Z,73530
2015-09-24T01:09:35.777Z,73530
2015-09-24T01:09:48.215Z,73531
2015-09-24T01:10:00.637Z,73530
2015-09-24T01:10:13.046Z,73529
2015-09-24T01:10:25.437Z,73531
2015-09-24T01:10:37.843Z,73533
2015-09-24T01:10:50.233Z,73533
2015-09-24T01:11:02.624Z,73534
2015-09-24T01:11:15.017Z,73533
2015-09-24T01:11:27.392Z,73534
2015-09-24T01:11:39.814Z,73535
2015-09-24T01:11:52.220Z,73536
2015-09-24T01:12:04.657Z,73536
2015-09-24T01:12:17.067Z,73537
2015-09-24T01:12:29.473Z,73537
2015-09-24T01:12:41.863Z,73536
2015-09-24T01:12:54.254Z,73537
2015-09-24T01:13:06.645Z,73539
2015-09-24T01:13:19.038Z,73539
2015-09-24T01:13:31.429Z,73543
2015-09-24T01:13:43.835Z,73543
2015-09-24T01:13:55.538Z,73540
2015-09-24T01:14:07.945Z,73545
2015-09-24T01:14:20.384Z,73547
2015-09-24T01:14:32.806Z,73546
2015-09-24T01:14:45.212Z,73546
2015-09-24T01:14:57.618Z,73546
2015-09-24T01:15:10.009Z,73545
2015-09-24T01:15:22.403Z,73547
2015-09-24T01:15:34.075Z,73547
2015-09-24T01:15:46.481Z,73545
2015-09-24T01:15:58.715Z,73548
2015-09-24T01:16:11.123Z,73547
2015-09-24T01:16:23.514Z,73546
2015-09-24T01:16:35.936Z,73545
2015-09-24T01:16:48.358Z,73549
2015-09-24T01:17:00.764Z,73549
2015-09-24T01:17:13.158Z,73548
2015-09-24T01:17:25.564Z,73551
2015-09-24T01:17:37.798Z,73552
2015-09-24T01:17:50.189Z,73551
2015-09-24T01:18:02.580Z,73547
2015-09-24T01:18:14.989Z,73550
2015-09-24T01:18:27.395Z,73547
2015-09-24T01:18:39.817Z,73546
2015-09-24T01:18:52.254Z,73550
2015-09-24T01:19:04.645Z,73549
2015-09-24T01:19:16.336Z,73550
2015-09-24T01:19:28.726Z,73551
2015-09-24T01:19:41.117Z,73550
2015-09-24T01:19:53.523Z,73550
2015-09-24T01:20:05.914Z,73549
2015-09-24T01:20:18.322Z,73547
2015-09-24T01:20:30.009Z,73550
2015-09-24T01:20:42.431Z,73552
2015-09-24T01:20:54.869Z,73552
2015-09-24T01:21:07.259Z,73553
2015-09-24T01:21:19.653Z,73553
2015-09-24T01:21:32.044Z,73552
2015-09-24T01:21:44.434Z,73550
2015-09-24T01:21:56.825Z,73554
2015-09-24T01:22:09.231Z,73554
2015-09-24T01:22:21.640Z,73551
2015-09-24T01:22:34.047Z,73550
2015-09-24T01:22:46.469Z,73551
2015-09-24T01:22:58.906Z,73551
2015-09-24T01:23:11.328Z,73551
2015-09-24T01:23:23.722Z,73551
2015-09-24T01:23:36.112Z,73550
2015-09-24T01:23:48.503Z,73549
2015-09-24T01:24:00.893Z,73552
2015-09-24T01:24:13.300Z,73551
2015-09-24T01:24:25.693Z,73548
2015-09-24T01:24:37.381Z,73549
2015-09-24T01:24:49.787Z,73551
2015-09-24T01:25:02.209Z,73553
2015-09-24T01:25:14.615Z,73554
2015-09-24T01:25:27.039Z,73553
2015-09-24T01:25:39.477Z,73554
2015-09-24T01:25:51.883Z,73558
2015-09-24T01:26:04.273Z,73558
2015-09-24T01:26:16.664Z,73558
2015-09-24T01:26:29.058Z,73559
2015-09-24T01:26:41.448Z,73560
2015-09-24T01:26:53.855Z,73563
2015-09-24T01:27:06.245Z,73562
2015-09-24T01:27:18.651Z,73562
2015-09-24T01:27:31.092Z,73562
2015-09-24T01:27:42.779Z,73563
2015-09-24T01:27:55.186Z,73565
2015-09-24T01:28:07.576Z,73565
2015-09-24T01:28:19.967Z,73565
2015-09-24T01:28:32.361Z,73567
2015-09-24T01:28:44.751Z,73567
2015-09-24T01:28:57.142Z,73567
2015-09-24T01:29:09.564Z,73570
2015-09-24T01:29:21.986Z,73569
2015-09-24T01:29:34.269Z,73570
2015-09-24T01:29:46.659Z,73569
2015-09-24T01:29:59.050Z,73567
2015-09-24T01:30:11.441Z,73571
2015-09-24T01:30:23.847Z,73570
2015-09-24T01:30:36.241Z,73567
2015-09-24T01:30:48.631Z,73570
2015-09-24T01:31:01.037Z,73569
2015-09-24T01:31:13.444Z,73567
2015-09-24T01:31:25.881Z,73569
2015-09-24T01:31:38.306Z,73568
2015-09-24T01:31:50.728Z,73567
2015-09-24T01:32:03.134Z,73568
2015-09-24T01:32:15.525Z,73569
2015-09-24T01:32:27.934Z,73569
2015-09-24T01:32:40.325Z,73568
2015-09-24T01:32:52.715Z,73566
2015-09-24T01:33:05.106Z,73568
2015-09-24T01:33:17.528Z,73566
2015-09-24T01:33:29.936Z,73567
2015-09-24T01:33:42.342Z,73567
2015-09-24T01:33:54.749Z,73565
2015-09-24T01:34:07.124Z,73565
2015-09-24T01:34:19.530Z,73565
2015-09-24T01:34:31.923Z,73565
2015-09-24T01:34:44.330Z,73561
2015-09-24T01:34:56.720Z,73562
2015-09-24T01:35:09.111Z,73566
2015-09-24T01:35:21.517Z,73561
2015-09-24T01:35:33.925Z,73563
2015-09-24T01:35:46.363Z,73565
2015-09-24T01:35:58.769Z,73562
2015-09-24T01:36:11.160Z,73566
2015-09-24T01:36:23.550Z,73563
2015-09-24T01:36:35.960Z,73563
2015-09-24T01:36:48.366Z,73563
2015-09-24T01:37:00.757Z,73562
2015-09-24T01:37:13.147Z,73563
2015-09-24T01:37:25.569Z,73564
2015-09-24T01:37:37.978Z,73564
2015-09-24T01:37:50.385Z,73563
2015-09-24T01:38:02.853Z,73566
2015-09-24T01:38:15.275Z,73561
2015-09-24T01:38:27.666Z,73560
2015-09-24T01:38:40.075Z,73561
2015-09-24T01:38:52.466Z,73561
2015-09-24T01:39:04.856Z,73559
2015-09-24T01:39:17.247Z,73562
2015-09-24T01:39:29.669Z,73560
2015-09-24T01:39:42.078Z,73558
2015-09-24T01:39:54.500Z,73560
2015-09-24T01:40:06.922Z,73559
2015-09-24T01:40:19.359Z,73561
2015-09-24T01:40:31.750Z,73563
2015-09-24T01:40:44.143Z,73561
2015-09-24T01:40:56.533Z,73561
2015-09-24T01:41:08.924Z,73563
2015-09-24T01:41:21.330Z,73561
2015-09-24T01:41:33.721Z,73561
2015-09-24T01:41:46.130Z,73566
2015-09-24T01:41:58.536Z,73565
2015-09-24T01:42:10.958Z,73563
2015-09-24T01:42:23.380Z,73559
2015-09-24T01:42:35.802Z,73563
2015-09-24T01:42:48.227Z,73563
2015-09-24T01:43:00.617Z,73561
2015-09-24T01:43:12.289Z,73566
2015-09-24T01:43:24.695Z,73561
2015-09-24T01:43:37.102Z,73564
2015-09-24T01:43:49.370Z,73563
2015-09-24T01:44:01.761Z,73561
2015-09-24T01:44:14.183Z,73564
2015-09-24T01:44:26.605Z,73565
2015-09-24T01:44:39.011Z,73561
2015-09-24T01:44:51.404Z,73559
2015-09-24T01:45:03.794Z,73561
2015-09-24T01:45:16.185Z,73559
2015-09-24T01:45:28.575Z,73560
2015-09-24T01:45:40.982Z,73560
2015-09-24T01:45:53.375Z,73558
2015-09-24T01:46:05.782Z,73560
2015-09-24T01:46:18.172Z,73558
2015-09-24T01:46:30.594Z,73559
2015-09-24T01:46:43.019Z,73561
2015-09-24T01:46:55.441Z,73560
2015-09-24T01:47:07.144Z,73560
2015-09-24T01:47:19.550Z,73560
2015-09-24T01:47:31.956Z,73559
2015-09-24T01:47:44.366Z,73558
2015-09-24T01:47:56.803Z,73561
2015-09-24T01:48:09.225Z,73563
2015-09-24T01:48:20.897Z,73566
2015-09-24T01:48:33.288Z,73562
2015-09-24T01:48:45.681Z,73562
2015-09-24T01:48:58.072Z,73562
2015-09-24T01:49:10.462Z,73563
2015-09-24T01:49:22.853Z,73564
2015-09-24T01:49:35.259Z,73564
2015-09-24T01:49:47.668Z,73566
2015-09-24T01:49:59.371Z,73567
2015-09-24T01:50:11.793Z,73566
2015-09-24T01:50:24.199Z,73563
2015-09-24T01:50:36.589Z,73567
2015-09-24T01:50:48.983Z,73567
2015-09-24T01:51:01.374Z,73565
2015-09-24T01:51:13.780Z,73568
2015-09-24T01:51:26.171Z,73564
2015-09-24T01:51:38.561Z,73566
2015-09-24T01:51:50.969Z,73566
2015-09-24T01:52:03.376Z,73566
2015-09-24T01:52:15.798Z,73570
2015-09-24T01:52:28.251Z,73570
2015-09-24T01:52:40.673Z,73565
2015-09-24T01:52:53.066Z,73565
2015-09-24T01:53:05.457Z,73568
2015-09-24T01:53:17.847Z,73566
2015-09-24T01:53:30.269Z,73565
2015-09-24T01:53:42.660Z,73568
2015-09-24T01:53:55.069Z,73567
2015-09-24T01:54:07.460Z,73566
2015-09-24T01:54:19.897Z,73567
2015-09-24T01:54:32.663Z,73568
2015-09-24T01:54:45.069Z,73571
2015-09-24T01:54:57.462Z,73573
2015-09-24T01:55:09.868Z,73569
2015-09-24T01:55:22.259Z,73570
2015-09-24T01:55:33.931Z,73571
2015-09-24T01:55:46.352Z,73571
2015-09-24T01:55:58.027Z,73570
2015-09-24T01:56:10.434Z,73570
2015-09-24T01:56:22.840Z,73570
2015-09-24T01:56:35.262Z,73567
2015-09-24T01:56:47.684Z,73568
2015-09-24T01:57:00.124Z,73570
2015-09-24T01:57:12.546Z,73567
2015-09-24T01:57:24.937Z,73566
2015-09-24T01:57:37.343Z,73567
2015-09-24T01:57:49.733Z,73566
2015-09-24T01:58:02.143Z,73565
2015-09-24T01:58:14.533Z,73563
2015-09-24T01:58:26.940Z,73565
2015-09-24T01:58:39.330Z,73566
2015-09-24T01:58:51.768Z,73565
2015-09-24T01:59:04.193Z,73561
2015-09-24T01:59:16.614Z,73563
2015-09-24T01:59:29.036Z,73561
2015-09-24T01:59:41.427Z,73560
2015-09-24T01:59:53.833Z,73560
2015-09-24T02:00:06.226Z,73561
2015-09-24T02:00:18.616Z,73561
2015-09-24T02:00:30.288Z,73561
2015-09-24T02:00:42.679Z,73556
2015-09-24T02:00:55.087Z,73556
2015-09-24T02:01:07.493Z,73559
2015-09-24T02:01:19.931Z,73558
2015-09-24T02:01:32.337Z,73557
2015-09-24T02:01:44.743Z,73555
2015-09-24T02:01:57.138Z,73557
2015-09-24T02:02:09.529Z,73552
2015-09-24T02:02:21.919Z,73557
2015-09-24T02:02:34.310Z,73556
2015-09-24T02:02:46.701Z,73555
2015-09-24T02:02:59.124Z,73554
2015-09-24T02:03:11.515Z,73557
2015-09-24T02:03:23.937Z,73556
2015-09-24T02:03:36.359Z,73557
2015-09-24T02:03:48.749Z,73557
2015-09-24T02:04:01.159Z,73555
2015-09-24T02:04:13.549Z,73558
2015-09-24T02:04:25.940Z,73559
2015-09-24T02:04:38.346Z,73557
2015-09-24T02:04:50.752Z,73561
2015-09-24T02:05:03.146Z,73558
2015-09-24T02:05:15.552Z,73557
2015-09-24T02:05:27.959Z,73560
2015-09-24T02:05:40.396Z,73560
2015-09-24T02:05:52.818Z,73560
2015-09-24T02:06:05.086Z,73566
2015-09-24T02:06:17.476Z,73562
2015-09-24T02:06:29.867Z,73561
2015-09-24T02:06:42.101Z,73565
2015-09-24T02:06:54.492Z,73563
2015-09-24T02:07:06.901Z,73562
2015-09-24T02:07:19.292Z,73564
2015-09-24T02:07:31.698Z,73563
2015-09-24T02:07:44.104Z,73565
2015-09-24T02:07:56.542Z,73564
2015-09-24T02:08:08.967Z,73559
2015-09-24T02:08:21.373Z,73563
2015-09-24T02:08:33.763Z,73559
2015-09-24T02:08:46.154Z,73558
2015-09-24T02:08:58.545Z,73563
2015-09-24T02:09:10.954Z,73563
2015-09-24T02:09:23.345Z,73561
2015-09-24T02:09:35.735Z,73562
2015-09-24T02:09:48.157Z,73562
2015-09-24T02:10:00.563Z,73562
2015-09-24T02:10:12.987Z,73560
2015-09-24T02:10:25.393Z,73559
2015-09-24T02:10:37.831Z,73562
2015-09-24T02:10:50.237Z,73560
2015-09-24T02:11:02.631Z,73559
2015-09-24T02:11:15.021Z,73561
2015-09-24T02:11:27.396Z,73555
2015-09-24T02:11:39.084Z,73558
2015-09-24T02:11:50.787Z,73557
2015-09-24T02:12:03.196Z,73561
2015-09-24T02:12:15.618Z,73559
2015-09-24T02:12:28.056Z,73556
2015-09-24T02:12:40.462Z,73554
2015-09-24T02:12:52.853Z,73557
2015-09-24T02:13:05.246Z,73558
2015-09-24T02:13:17.652Z,73557
2015-09-24T02:13:30.043Z,73560
2015-09-24T02:13:42.434Z,73562
2015-09-24T02:13:54.824Z,73559
2015-09-24T02:14:07.234Z,73560
2015-09-24T02:14:18.937Z,73560
2015-09-24T02:14:31.374Z,73560
2015-09-24T02:14:43.796Z,73561
2015-09-24T02:14:56.234Z,73562
2015-09-24T02:15:08.626Z,73561
2015-09-24T02:15:21.017Z,73563
2015-09-24T02:15:33.423Z,73564
2015-09-24T02:15:45.814Z,73561
2015-09-24T02:15:58.204Z,73564
2015-09-24T02:16:10.581Z,73561
2015-09-24T02:16:22.972Z,73560
2015-09-24T02:16:35.363Z,73560
2015-09-24T02:16:47.769Z,73561
2015-09-24T02:17:00.191Z,73562
2015-09-24T02:17:12.569Z,73562
2015-09-24T02:17:24.991Z,73561
2015-09-24T02:17:37.381Z,73564
2015-09-24T02:17:49.772Z,73563
2015-09-24T02:18:02.178Z,73564
2015-09-24T02:18:14.603Z,73561
2015-09-24T02:18:27.025Z,73560
2015-09-24T02:18:39.447Z,73563
2015-09-24T02:18:51.869Z,73562
2015-09-24T02:19:04.259Z,73563
2015-09-24T02:19:16.653Z,73561
2015-09-24T02:19:29.059Z,73562
2015-09-24T02:19:41.450Z,73563
2015-09-24T02:19:53.840Z,73561
2015-09-24T02:20:05.528Z,73557
2015-09-24T02:20:17.921Z,73564
2015-09-24T02:20:29.640Z,73561
2015-09-24T02:20:42.062Z,73559
2015-09-24T02:20:54.468Z,73561
2015-09-24T02:21:06.859Z,73559
2015-09-24T02:21:19.268Z,73560
2015-09-24T02:21:31.659Z,73559
2015-09-24T02:21:44.049Z,73558
2015-09-24T02:21:56.456Z,73560
2015-09-24T02:22:08.846Z,73561
2015-09-24T02:22:21.255Z,73558
2015-09-24T02:22:33.692Z,73559
2015-09-24T02:22:46.114Z,73561
2015-09-24T02:22:58.551Z,73556
2015-09-24T02:23:10.945Z,73559
2015-09-24T02:23:23.320Z,73559
2015-09-24T02:23:35.711Z,73559
2015-09-24T02:23:48.101Z,73555
2015-09-24T02:24:00.336Z,73560
2015-09-24T02:24:12.728Z,73555
2015-09-24T02:24:25.135Z,73559
2015-09-24T02:24:37.541Z,73557
2015-09-24T02:24:49.963Z,73558
2015-09-24T02:25:02.385Z,73557
2015-09-24T02:25:14.825Z,73558
2015-09-24T02:25:27.247Z,73560
2015-09-24T02:25:39.653Z,73558
2015-09-24T02:25:52.044Z,73559
2015-09-24T02:26:04.434Z,73560
2015-09-24T02:26:16.828Z,73563
2015-09-24T02:26:29.250Z,73560
2015-09-24T02:26:41.656Z,73559
2015-09-24T02:26:54.062Z,73566
2015-09-24T02:27:06.484Z,73564
2015-09-24T02:27:18.914Z,73562
2015-09-24T02:27:31.352Z,73564
2015-09-24T02:27:43.789Z,73564
2015-09-24T02:27:56.180Z,73565
2015-09-24T02:28:08.570Z,73565
2015-09-24T02:28:20.964Z,73568
2015-09-24T02:28:33.355Z,73567
2015-09-24T02:28:45.745Z,73566
2015-09-24T02:28:58.136Z,73566
2015-09-24T02:29:10.558Z,73566
2015-09-24T02:29:22.967Z,73565
2015-09-24T02:29:35.404Z,73570
2015-09-24T02:29:47.795Z,73566
2015-09-24T02:30:00.186Z,73567
2015-09-24T02:30:12.576Z,73570
2015-09-24T02:30:24.968Z,73569
2015-09-24T02:30:37.374Z,73569
2015-09-24T02:30:49.780Z,73570
2015-09-24T02:31:02.202Z,73571
2015-09-24T02:31:14.640Z,73569
2015-09-24T02:31:27.080Z,73569
2015-09-24T02:31:39.487Z,73568
2015-09-24T02:31:51.877Z,73570
2015-09-24T02:32:04.268Z,73570
2015-09-24T02:32:16.674Z,73573
2015-09-24T02:32:29.068Z,73571
2015-09-24T02:32:41.458Z,73573
2015-09-24T02:32:53.865Z,73573
2015-09-24T02:33:06.286Z,73575
2015-09-24T02:33:18.711Z,73576
2015-09-24T02:33:30.399Z,73576
2015-09-24T02:33:42.789Z,73577
2015-09-24T02:33:55.196Z,73575
2015-09-24T02:34:07.586Z,73577
2015-09-24T02:34:19.980Z,73579
2015-09-24T02:34:32.371Z,73580
2015-09-24T02:34:44.777Z,73577
2015-09-24T02:34:57.183Z,73580
2015-09-24T02:35:09.605Z,73578
2015-09-24T02:35:22.044Z,73583
2015-09-24T02:35:34.435Z,73581
2015-09-24T02:35:46.841Z,73579
2015-09-24T02:35:59.232Z,73580
2015-09-24T02:36:11.623Z,73579
2015-09-24T02:36:24.016Z,73581
2015-09-24T02:36:36.422Z,73580
2015-09-24T02:36:48.813Z,73581
2015-09-24T02:37:01.219Z,73581
2015-09-24T02:37:13.657Z,73578
2015-09-24T02:37:26.066Z,73578
2015-09-24T02:37:38.472Z,73580
2015-09-24T02:37:50.863Z,73579
2015-09-24T02:38:03.254Z,73579
2015-09-24T02:38:15.644Z,73578
2015-09-24T02:38:28.069Z,73578
2015-09-24T02:38:40.475Z,73579
2015-09-24T02:38:52.897Z,73579
2015-09-24T02:39:05.319Z,73578
2015-09-24T02:39:17.757Z,73582